createdAt,value
2023-03-06T01:30:17.320Z,0.63
2023-03-06T01:35:26.322Z,0.20
2023-03-06T01:40:30.554Z,0.30
2023-03-06T01:45:35.074Z,0.20
2023-03-06T01:50:37.134Z,0.10
2023-03-06T01:55:39.148Z,0.10
2023-03-06T02:00:40.682Z,0.22
2023-03-06T02:05:42.834Z,0.45
2023-03-06T02:11:15.570Z,0.22
2023-03-06T02:16:18.826Z,0.30
2023-03-06T02:21:25.746Z,0.10
2023-03-06T02:26:28.686Z,0.30
2023-03-06T02:31:33.269Z,0.28
2023-03-06T02:36:40.653Z,0.20
2023-03-06T02:41:42.423Z,0.30
2023-03-06T02:46:44.027Z,0.20
2023-03-06T02:51:45.724Z,0.20
2023-03-06T02:56:47.277Z,0.20
2023-03-06T03:01:49.028Z,0.10
2023-03-06T03:06:50.670Z,0.30
2023-03-06T03:11:53.136Z,0.17
2023-03-06T03:16:55.265Z,0.10
2023-03-06T03:21:58.925Z,0.82
2023-03-06T03:27:01.010Z,0.20
2023-03-06T03:32:02.841Z,0.20
2023-03-06T03:37:04.923Z,0.30
2023-03-06T03:42:06.934Z,0.20
2023-03-06T03:47:08.679Z,0.30
2023-03-06T03:52:10.927Z,0.40
2023-03-06T03:57:14.478Z,0.10
2023-03-06T04:02:21.824Z,0.20
2023-03-06T04:07:35.441Z,0.15
2023-03-06T04:12:37.830Z,0.10
2023-03-06T04:17:39.722Z,0.10
2023-03-06T04:22:45.366Z,0.20
2023-03-06T04:27:47.760Z,0.25
2023-03-06T04:32:49.517Z,0.20
2023-03-06T04:37:51.519Z,0.30
2023-03-06T04:42:56.806Z,0.20
2023-03-06T04:47:59.076Z,0.40
2023-03-06T04:53:33.681Z,0.10
2023-03-06T04:58:52.781Z,0.20
2023-03-06T05:15:02.856Z,0.20
2023-03-06T05:25:44.453Z,0.30
2023-03-06T05:31:01.604Z,0.10
2023-03-06T05:36:16.291Z,0.25
2023-03-06T05:41:31.812Z,0.40
2023-03-06T05:46:41.387Z,0.52
2023-03-06T05:51:46.241Z,0.30
2023-03-06T05:56:47.964Z,0.55
2023-03-06T06:02:03.540Z,0.80
2023-03-06T06:07:25.525Z,0.13
2023-03-06T06:12:28.895Z,0.10
2023-03-06T06:17:38.613Z,1.17
2023-03-06T06:22:45.923Z,0.52
2023-03-06T06:27:54.726Z,0.20
2023-03-06T06:33:00.176Z,0.40
2023-03-06T06:38:08.281Z,0.73
2023-03-06T06:43:13.298Z,0.82
2023-03-06T06:48:20.496Z,0.73
2023-03-06T06:53:35.817Z,0.50
2023-03-06T06:58:39.269Z,0.93
2023-03-06T07:03:44.684Z,0.20
2023-03-06T07:09:23.360Z,0.40
2023-03-06T07:14:17.776Z,0.40
2023-03-06T07:19:22.735Z,0.10
2023-03-06T07:24:24.794Z,0.70
2023-03-06T07:29:32.621Z,0.20
2023-03-06T07:34:34.439Z,1.15
2023-03-06T07:39:48.835Z,0.45
2023-03-06T07:44:50.473Z,0.20
2023-03-06T07:50:00.220Z,0.35
2023-03-06T07:55:32.739Z,0.17
2023-03-06T08:00:47.420Z,0.10
2023-03-06T08:06:15.272Z,0.73
2023-03-06T08:17:02.700Z,0.50
2023-03-06T08:27:29.421Z,0.20
2023-03-06T08:32:31.162Z,0.13
2023-03-06T08:37:38.945Z,0.28
2023-03-06T08:42:42.392Z,0.20
2023-03-06T08:47:44.421Z,0.38
2023-03-06T08:52:49.599Z,0.10
2023-03-06T08:57:51.326Z,0.10
2023-03-06T09:02:53.094Z,0.20
2023-03-06T09:07:57.195Z,0.90
2023-03-06T09:12:58.767Z,0.30
2023-03-06T09:18:00.340Z,0.57
2023-03-06T09:23:02.059Z,0.20
2023-03-06T09:28:11.375Z,0.22
2023-03-06T09:33:14.774Z,0.40
2023-03-06T09:38:17.904Z,0.13
2023-03-06T09:43:28.467Z,0.80
2023-03-06T09:49:01.181Z,0.40
2023-03-06T09:54:15.997Z,0.10
2023-03-06T09:59:21.771Z,0.10
2023-03-06T10:04:31.646Z,0.10
2023-03-06T10:09:48.068Z,0.47
2023-03-06T10:15:00.663Z,0.30
2023-03-06T10:20:27.302Z,0.43
2023-03-06T10:26:01.027Z,0.20
2023-03-06T10:31:28.923Z,0.13
2023-03-06T10:36:36.286Z,0.57
2023-03-06T10:41:47.280Z,0.30
2023-03-06T10:47:09.204Z,0.85
2023-03-06T10:57:32.631Z,0.38
2023-03-06T11:02:41.542Z,0.30
2023-03-06T11:08:01.840Z,0.80
2023-03-06T11:13:29.281Z,0.55
2023-03-06T11:18:53.108Z,0.20
2023-03-06T11:24:05.405Z,0.20
2023-03-06T11:29:25.522Z,0.22
2023-03-06T11:41:38.743Z,0.20
2023-03-06T12:06:15.852Z,0.65
2023-03-06T12:11:53.720Z,0.55
2023-03-06T12:41:44.936Z,0.80
2023-03-06T13:43:59.753Z,0.30
2023-03-06T13:49:13.475Z,0.30
2023-03-06T13:54:39.616Z,0.50
2023-03-06T14:00:19.223Z,0.40
2023-03-06T14:05:21.792Z,0.30
2023-03-06T14:10:26.070Z,0.20
2023-03-06T14:15:39.856Z,0.20
2023-03-06T14:20:46.981Z,0.65
2023-03-06T14:25:55.343Z,0.20
2023-03-06T14:30:59.482Z,0.40
2023-03-06T14:36:10.345Z,0.15
2023-03-06T14:41:14.069Z,0.15
2023-03-06T14:46:22.032Z,0.10
2023-03-06T14:51:42.198Z,0.38
2023-03-06T14:57:13.856Z,0.22
2023-03-06T15:02:21.530Z,0.40
2023-03-06T15:07:27.683Z,0.20
2023-03-06T15:12:33.887Z,1.05
2023-03-06T15:17:44.145Z,0.47
2023-03-06T15:28:00.190Z,0.10
2023-03-06T15:38:33.790Z,0.10
2023-03-06T15:43:39.281Z,0.28
2023-03-06T15:48:59.371Z,0.70
2023-03-06T15:54:11.409Z,0.20
2023-03-06T15:59:23.121Z,0.30
2023-03-06T16:04:24.772Z,1.23
2023-03-06T16:09:26.684Z,0.98
2023-03-06T16:14:28.329Z,0.73
2023-03-06T16:19:30.285Z,1.27
2023-03-06T16:24:32.357Z,0.75
2023-03-06T16:29:34.201Z,0.50
2023-03-06T16:34:36.405Z,0.32
2023-03-06T16:39:37.912Z,1.10
2023-03-06T16:44:39.882Z,0.32
2023-03-06T16:49:41.515Z,0.60
2023-03-06T16:54:44.644Z,0.57
2023-03-06T16:59:46.794Z,0.43
2023-03-06T17:04:48.381Z,0.20
2023-03-06T17:09:50.224Z,0.68
2023-03-06T17:14:54.891Z,0.80
2023-03-06T17:19:56.423Z,0.47
2023-03-06T17:24:57.954Z,0.82
2023-03-06T17:30:00.144Z,1.08
2023-03-06T17:35:02.045Z,0.50
2023-03-06T17:40:06.851Z,0.63
2023-03-06T17:45:09.515Z,0.38
2023-03-06T17:50:11.450Z,0.60
2023-03-06T17:55:13.453Z,0.30
2023-03-06T18:00:16.542Z,0.20
2023-03-06T18:05:20.413Z,0.20
2023-03-06T18:10:21.926Z,0.38
2023-03-06T18:15:24.147Z,0.50
2023-03-06T18:20:26.014Z,0.40
2023-03-06T18:25:27.671Z,0.38
2023-03-06T18:30:29.177Z,0.50
2023-03-06T18:35:30.922Z,0.40
2023-03-06T18:40:32.781Z,0.52
2023-03-06T18:45:34.718Z,0.60
2023-03-06T18:50:36.375Z,0.40
2023-03-06T18:55:38.705Z,0.55
2023-03-06T19:00:40.480Z,0.40
2023-03-06T19:05:45.413Z,0.50
2023-03-06T19:10:47.259Z,0.30
2023-03-06T19:15:49.110Z,0.52
2023-03-06T19:20:50.729Z,0.60
2023-03-06T19:25:56.515Z,0.30
2023-03-06T19:30:58.156Z,0.45
2023-03-06T19:36:02.161Z,0.43
2023-03-06T19:41:04.298Z,0.43
2023-03-06T19:46:06.380Z,0.43
2023-03-06T19:51:08.275Z,0.20
2023-03-06T19:56:22.007Z,0.50
2023-03-06T20:01:25.879Z,0.50
2023-03-06T20:06:30.138Z,0.40
2023-03-06T20:11:32.392Z,0.43
2023-03-06T20:16:34.977Z,0.40
2023-03-06T20:21:37.720Z,0.60
2023-03-06T20:26:39.515Z,0.75
2023-03-06T20:31:41.018Z,0.25
2023-03-06T20:36:42.591Z,0.95
2023-03-06T20:41:44.805Z,1.35
2023-03-06T20:46:46.636Z,0.85
2023-03-06T20:51:48.259Z,1.15
2023-03-06T20:56:50.324Z,2.75
2023-03-06T21:01:52.052Z,1.45
2023-03-06T21:06:54.181Z,1.10
2023-03-06T21:11:55.740Z,1.02
2023-03-06T21:16:57.343Z,1.70
2023-03-06T21:21:58.866Z,0.90
2023-03-06T21:27:00.397Z,1.40
2023-03-06T21:32:01.994Z,1.80
2023-03-06T21:37:03.844Z,1.48
2023-03-06T21:42:05.495Z,2.53
2023-03-06T21:47:07.220Z,1.30
2023-03-06T21:52:09.001Z,1.77
2023-03-06T21:57:11.064Z,2.25
2023-03-06T22:02:12.717Z,1.65
2023-03-06T22:07:14.487Z,1.73
2023-03-06T22:12:16.085Z,2.92
2023-03-06T22:17:17.760Z,2.00
2023-03-06T22:22:19.523Z,2.13
2023-03-06T22:27:21.703Z,3.33
2023-03-06T22:32:23.462Z,3.63
2023-03-06T22:37:25.207Z,2.63
2023-03-06T22:42:26.992Z,3.20
2023-03-06T22:47:28.611Z,3.22
2023-03-06T22:52:30.199Z,1.88
2023-03-06T22:57:32.078Z,1.85
2023-03-06T23:02:35.032Z,3.38
2023-03-06T23:07:37.050Z,2.08
2023-03-06T23:12:41.463Z,1.60
2023-03-06T23:18:01.727Z,3.70
2023-03-06T23:23:22.852Z,4.25
2023-03-06T23:28:24.613Z,3.53
2023-03-06T23:33:26.281Z,3.28
2023-03-06T23:38:29.718Z,2.35
2023-03-06T23:43:32.010Z,2.28
2023-03-06T23:48:35.739Z,3.58
2023-03-06T23:53:37.364Z,3.78
2023-03-06T23:58:39.321Z,2.30
